sensor_id;sensor_type;location;lat;lon;timestamp;pressure;altitude;pressure_sealevel;temperature;humidity
46199;BME280;31928;52.104;10.030;2023-04-15T00:01:58;99794.53;;;12.05;49.59
46199;BME280;31928;52.104;10.030;2023-04-15T00:04:26;99788.22;;;12.00;49.76
46199;BME280;31928;52.104;10.030;2023-04-15T00:06:53;99790.56;;;11.97;49.88
46199;BME280;31928;52.104;10.030;2023-04-15T00:09:20;99786.72;;;11.93;49.75
46199;BME280;31928;52.104;10.030;2023-04-15T00:11:46;99794.19;;;11.91;49.87
46199;BME280;31928;52.104;10.030;2023-04-15T00:14:13;99794.66;;;11.88;49.98
46199;BME280;31928;52.104;10.030;2023-04-15T00:16:40;99793.50;;;11.84;50.37
46199;BME280;31928;52.104;10.030;2023-04-15T00:19:06;99790.69;;;11.79;50.54
46199;BME280;31928;52.104;10.030;2023-04-15T00:21:33;99796.13;;;12.06;47.12
46199;BME280;31928;52.104;10.030;2023-04-15T00:24:00;99792.78;;;11.77;50.22
46199;BME280;31928;52.104;10.030;2023-04-15T00:26:27;99787.53;;;11.70;50.73
46199;BME280;31928;52.104;10.030;2023-04-15T00:28:53;99783.44;;;11.68;51.19
46199;BME280;31928;52.104;10.030;2023-04-15T00:31:20;99784.72;;;11.65;51.18
46199;BME280;31928;52.104;10.030;2023-04-15T00:33:47;99775.28;;;11.63;51.63
46199;BME280;31928;52.104;10.030;2023-04-15T00:36:14;99773.50;;;11.91;47.45
46199;BME280;31928;52.104;10.030;2023-04-15T00:38:40;99782.28;;;11.64;51.29
46199;BME280;31928;52.104;10.030;2023-04-15T00:41:08;99786.84;;;11.63;51.67
46199;BME280;31928;52.104;10.030;2023-04-15T00:43:36;99790.22;;;11.59;51.73
46199;BME280;31928;52.104;10.030;2023-04-15T00:46:04;99786.72;;;11.58;52.22
46199;BME280;31928;52.104;10.030;2023-04-15T00:48:31;99790.44;;;11.57;51.98
46199;BME280;31928;52.104;10.030;2023-04-15T00:50:58;99785.88;;;11.58;52.15
46199;BME280;31928;52.104;10.030;2023-04-15T00:53:24;99773.31;;;11.58;52.40
46199;BME280;31928;52.104;10.030;2023-04-15T00:55:51;99783.00;;;11.59;52.22
46199;BME280;31928;52.104;10.030;2023-04-15T00:58:18;99782.16;;;11.59;52.32
46199;BME280;31928;52.104;10.030;2023-04-15T01:00:45;99774.94;;;11.59;52.13
46199;BME280;31928;52.104;10.030;2023-04-15T01:03:12;99768.75;;;11.59;52.18
46199;BME280;31928;52.104;10.030;2023-04-15T01:05:39;99758.84;;;11.59;52.36
46199;BME280;31928;52.104;10.030;2023-04-15T01:08:07;99776.56;;;11.60;52.15
46199;BME280;31928;52.104;10.030;2023-04-15T01:10:33;99776.34;;;11.62;52.26
46199;BME280;31928;52.104;10.030;2023-04-15T01:13:02;99763.72;;;11.62;52.46
46199;BME280;31928;52.104;10.030;2023-04-15T01:15:30;99773.66;;;11.62;52.61
46199;BME280;31928;52.104;10.030;2023-04-15T01:17:58;99762.94;;;11.62;52.81
46199;BME280;31928;52.104;10.030;2023-04-15T01:20:25;99756.97;;;11.60;52.67
46199;BME280;31928;52.104;10.030;2023-04-15T01:22:53;99758.00;;;11.59;52.63
46199;BME280;31928;52.104;10.030;2023-04-15T01:25:33;99765.50;;;11.68;51.41
46199;BME280;31928;52.104;10.030;2023-04-15T01:28:00;99773.31;;;11.58;52.92
46199;BME280;31928;52.104;10.030;2023-04-15T01:30:26;99774.09;;;11.59;52.56
46199;BME280;31928;52.104;10.030;2023-04-15T01:32:53;99762.56;;;11.58;52.87
46199;BME280;31928;52.104;10.030;2023-04-15T01:35:20;99777.28;;;11.56;53.05
46199;BME280;31928;52.104;10.030;2023-04-15T01:37:48;99769.44;;;11.54;53.16
46199;BME280;31928;52.104;10.030;2023-04-15T01:40:14;99761.41;;;11.54;53.18
46199;BME280;31928;52.104;10.030;2023-04-15T01:42:41;99765.94;;;11.54;53.51
46199;BME280;31928;52.104;10.030;2023-04-15T01:45:08;99756.84;;;11.55;52.94
46199;BME280;31928;52.104;10.030;2023-04-15T01:47:35;99749.81;;;11.54;53.46
46199;BME280;31928;52.104;10.030;2023-04-15T01:50:02;99745.28;;;11.54;53.08
46199;BME280;31928;52.104;10.030;2023-04-15T01:52:28;99741.78;;;11.54;53.57
46199;BME280;31928;52.104;10.030;2023-04-15T01:54:55;99753.59;;;11.53;53.17
46199;BME280;31928;52.104;10.030;2023-04-15T01:57:22;99749.94;;;11.82;49.49
46199;BME280;31928;52.104;10.030;2023-04-15T01:59:48;99751.00;;;11.58;53.03
46199;BME280;31928;52.104;10.030;2023-04-15T02:02:15;99745.06;;;11.56;53.03
46199;BME280;31928;52.104;10.030;2023-04-15T02:04:42;99747.97;;;11.54;53.49
46199;BME280;31928;52.104;10.030;2023-04-15T02:07:10;99750.66;;;11.54;53.43
46199;BME280;31928;52.104;10.030;2023-04-15T02:09:36;99752.31;;;11.55;53.56
46199;BME280;31928;52.104;10.030;2023-04-15T02:12:04;99749.81;;;11.54;53.57
46199;BME280;31928;52.104;10.030;2023-04-15T02:14:31;99746.09;;;11.55;53.49
46199;BME280;31928;52.104;10.030;2023-04-15T02:16:57;99739.78;;;11.84;50.03
46199;BME280;31928;52.104;10.030;2023-04-15T02:19:35;99744.59;;;11.59;53.22
46199;BME280;31928;52.104;10.030;2023-04-15T02:22:01;99745.28;;;11.54;53.55
46199;BME280;31928;52.104;10.030;2023-04-15T02:24:29;99752.50;;;11.54;53.27
46199;BME280;31928;52.104;10.030;2023-04-15T02:26:56;99751.94;;;11.52;53.80
46199;BME280;31928;52.104;10.030;2023-04-15T02:29:22;99744.69;;;11.52;53.61
46199;BME280;31928;52.104;10.030;2023-04-15T02:31:49;99749.03;;;11.53;53.84
46199;BME280;31928;52.104;10.030;2023-04-15T02:34:16;99747.63;;;11.51;53.67
46199;BME280;31928;52.104;10.030;2023-04-15T02:36:43;99759.75;;;11.53;53.99
46199;BME280;31928;52.104;10.030;2023-04-15T02:39:09;99750.06;;;11.52;53.81
46199;BME280;31928;52.104;10.030;2023-04-15T02:41:38;99745.97;;;11.50;54.16
46199;BME280;31928;52.104;10.030;2023-04-15T02:44:04;99754.03;;;11.50;53.88
46199;BME280;31928;52.104;10.030;2023-04-15T02:46:36;99757.31;;;11.52;54.03
46199;BME280;31928;52.104;10.030;2023-04-15T02:49:03;99752.75;;;11.52;54.10
46199;BME280;31928;52.104;10.030;2023-04-15T02:51:29;99763.50;;;11.52;54.04
46199;BME280;31928;52.104;10.030;2023-04-15T02:53:57;99763.72;;;11.51;54.41
46199;BME280;31928;52.104;10.030;2023-04-15T02:56:24;99761.03;;;11.51;54.58
46199;BME280;31928;52.104;10.030;2023-04-15T02:58:51;99759.16;;;11.51;54.27
46199;BME280;31928;52.104;10.030;2023-04-15T03:01:17;99757.31;;;11.52;54.36
46199;BME280;31928;52.104;10.030;2023-04-15T03:03:44;99755.69;;;11.51;54.57
46199;BME280;31928;52.104;10.030;2023-04-15T03:06:11;99761.63;;;11.53;54.39
46199;BME280;31928;52.104;10.030;2023-04-15T03:08:37;99751.94;;;11.52;54.43
46199;BME280;31928;52.104;10.030;2023-04-15T03:11:04;99755.19;;;11.54;54.68
46199;BME280;31928;52.104;10.030;2023-04-15T03:13:30;99759.75;;;11.53;54.41
46199;BME280;31928;52.104;10.030;2023-04-15T03:15:57;99762.44;;;11.53;54.46
46199;BME280;31928;52.104;10.030;2023-04-15T03:18:24;99771.31;;;11.54;54.72
46199;BME280;31928;52.104;10.030;2023-04-15T03:20:50;99764.31;;;11.53;55.15
46199;BME280;31928;52.104;10.030;2023-04-15T03:23:17;99752.75;;;11.52;55.14
46199;BME280;31928;52.104;10.030;2023-04-15T03:25:44;99753.59;;;11.53;55.24
46199;BME280;31928;52.104;10.030;2023-04-15T03:28:11;99743.28;;;11.50;55.21
46199;BME280;31928;52.104;10.030;2023-04-15T03:30:37;99744.94;;;11.51;55.36
46199;BME280;31928;52.104;10.030;2023-04-15T03:33:04;99743.28;;;11.50;55.17
46199;BME280;31928;52.104;10.030;2023-04-15T03:35:30;99737.94;;;11.50;55.14
46199;BME280;31928;52.104;10.030;2023-04-15T03:37:57;99743.28;;;11.50;55.27
46199;BME280;31928;52.104;10.030;2023-04-15T03:40:24;99744.34;;;11.49;55.25
46199;BME280;31928;52.104;10.030;2023-04-15T03:42:50;99750.75;;;11.48;55.76
46199;BME280;31928;52.104;10.030;2023-04-15T03:45:17;99743.75;;;11.47;55.66
46199;BME280;31928;52.104;10.030;2023-04-15T03:47:44;99742.94;;;11.46;55.94
46199;BME280;31928;52.104;10.030;2023-04-15T03:50:10;99740.59;;;11.73;51.71
46199;BME280;31928;52.104;10.030;2023-04-15T03:52:37;99734.66;;;11.48;55.26
46199;BME280;31928;52.104;10.030;2023-04-15T03:55:04;99740.47;;;11.45;55.60
46199;BME280;31928;52.104;10.030;2023-04-15T03:57:31;99736.28;;;11.72;51.65
46199;BME280;31928;52.104;10.030;2023-04-15T03:59:57;99735.94;;;11.45;55.48
46199;BME280;31928;52.104;10.030;2023-04-15T04:02:24;99754.94;;;11.44;55.80
46199;BME280;31928;52.104;10.030;2023-04-15T04:04:51;99749.00;;;11.42;56.18
46199;BME280;31928;52.104;10.030;2023-04-15T04:07:18;99754.34;;;11.42;56.13
46199;BME280;31928;52.104;10.030;2023-04-15T04:09:44;99747.13;;;11.42;56.17
46199;BME280;31928;52.104;10.030;2023-04-15T04:12:12;99757.50;;;11.39;56.40
46199;BME280;31928;52.104;10.030;2023-04-15T04:14:39;99745.06;;;11.67;52.55
46199;BME280;31928;52.104;10.030;2023-04-15T04:17:06;99751.66;;;11.42;55.89
46199;BME280;31928;52.104;10.030;2023-04-15T04:19:32;99748.53;;;11.68;52.10
46199;BME280;31928;52.104;10.030;2023-04-15T04:21:59;99757.03;;;11.42;56.12
46199;BME280;31928;52.104;10.030;2023-04-15T04:24:26;99755.88;;;11.38;56.37
46199;BME280;31928;52.104;10.030;2023-04-15T04:26:53;99751.56;;;11.37;56.32
46199;BME280;31928;52.104;10.030;2023-04-15T04:29:19;99752.59;;;11.36;56.30
46199;BME280;31928;52.104;10.030;2023-04-15T04:31:46;99757.41;;;11.34;56.64
46199;BME280;31928;52.104;10.030;2023-04-15T04:34:14;99755.19;;;11.31;56.61
46199;BME280;31928;52.104;10.030;2023-04-15T04:36:41;99750.25;;;11.28;56.75
46199;BME280;31928;52.104;10.030;2023-04-15T04:39:08;99751.09;;;11.29;56.98
46199;BME280;31928;52.104;10.030;2023-04-15T04:41:34;99749.44;;;11.28;56.78
46199;BME280;31928;52.104;10.030;2023-04-15T04:44:01;99748.66;;;11.27;57.01
46199;BME280;31928;52.104;10.030;2023-04-15T04:46:27;99747.81;;;11.27;56.74
46199;BME280;31928;52.104;10.030;2023-04-15T04:48:54;99748.66;;;11.27;56.76
46199;BME280;31928;52.104;10.030;2023-04-15T04:51:21;99743.50;;;11.26;57.00
46199;BME280;31928;52.104;10.030;2023-04-15T04:53:47;99753.59;;;11.53;52.81
46199;BME280;31928;52.104;10.030;2023-04-15T04:56:14;99748.66;;;11.27;56.66
46199;BME280;31928;52.104;10.030;2023-04-15T04:58:40;99740.00;;;11.25;56.68
46199;BME280;31928;52.104;10.030;2023-04-15T05:01:07;99744.75;;;11.23;57.28
46199;BME280;31928;52.104;10.030;2023-04-15T05:03:34;99754.88;;;11.50;53.31
46199;BME280;31928;52.104;10.030;2023-04-15T05:06:01;99745.38;;;11.25;57.06
46199;BME280;31928;52.104;10.030;2023-04-15T05:08:31;99749.56;;;11.21;57.13
46199;BME280;31928;52.104;10.030;2023-04-15T05:10:58;99753.28;;;11.20;57.42
46199;BME280;31928;52.104;10.030;2023-04-15T05:13:24;99753.28;;;11.20;57.17
46199;BME280;31928;52.104;10.030;2023-04-15T05:15:51;99745.38;;;11.48;53.09
46199;BME280;31928;52.104;10.030;2023-04-15T05:18:18;99744.19;;;11.21;56.94
46199;BME280;31928;52.104;10.030;2023-04-15T05:20:45;99750.03;;;11.18;57.33
46199;BME280;31928;52.104;10.030;2023-04-15T05:23:12;99747.34;;;11.18;57.48
46199;BME280;31928;52.104;10.030;2023-04-15T05:25:39;99743.84;;;11.18;57.58
46199;BME280;31928;52.104;10.030;2023-04-15T05:28:05;99753.06;;;11.44;53.80
46199;BME280;31928;52.104;10.030;2023-04-15T05:30:32;99749.81;;;11.20;57.35
46199;BME280;31928;52.104;10.030;2023-04-15T05:32:59;99750.16;;;11.46;53.27
46199;BME280;31928;52.104;10.030;2023-04-15T05:35:25;99738.22;;;11.19;57.10
46199;BME280;31928;52.104;10.030;2023-04-15T05:37:52;99746.53;;;11.18;57.66
46199;BME280;31928;52.104;10.030;2023-04-15T05:40:19;99744.88;;;11.17;57.51
46199;BME280;31928;52.104;10.030;2023-04-15T05:42:46;99736.25;;;11.15;57.95
46199;BME280;31928;52.104;10.030;2023-04-15T05:45:12;99747.13;;;11.42;54.00
46199;BME280;31928;52.104;10.030;2023-04-15T05:47:39;99745.47;;;11.19;57.34
46199;BME280;31928;52.104;10.030;2023-04-15T05:50:06;99739.31;;;11.18;57.56
46199;BME280;31928;52.104;10.030;2023-04-15T05:52:32;99747.72;;;11.44;53.63
46199;BME280;31928;52.104;10.030;2023-04-15T05:54:59;99746.28;;;11.19;57.71
46199;BME280;31928;52.104;10.030;2023-04-15T05:57:25;99743.03;;;11.17;57.91
46199;BME280;31928;52.104;10.030;2023-04-15T05:59:52;99736.81;;;11.17;57.67
46199;BME280;31928;52.104;10.030;2023-04-15T06:02:19;99745.94;;;11.16;57.96
46199;BME280;31928;52.104;10.030;2023-04-15T06:04:45;99739.75;;;11.15;58.39
46199;BME280;31928;52.104;10.030;2023-04-15T06:07:12;99752.13;;;11.16;58.38
46199;BME280;31928;52.104;10.030;2023-04-15T06:09:39;99740.13;;;11.19;61.12
46199;BME280;31928;52.104;10.030;2023-04-15T06:12:06;99742.09;;;11.23;61.98
46199;BME280;31928;52.104;10.030;2023-04-15T06:14:37;99746.66;;;11.34;61.70
46199;BME280;31928;52.104;10.030;2023-04-15T06:17:04;99740.25;;;11.46;60.60
46199;BME280;31928;52.104;10.030;2023-04-15T06:19:32;99741.91;;;11.59;59.63
46199;BME280;31928;52.104;10.030;2023-04-15T06:21:58;99743.28;;;11.73;59.49
46199;BME280;31928;52.104;10.030;2023-04-15T06:24:25;99734.34;;;12.06;56.47
46199;BME280;31928;52.104;10.030;2023-04-15T06:26:52;99743.13;;;12.02;58.56
46199;BME280;31928;52.104;10.030;2023-04-15T06:29:18;99748.25;;;12.15;58.16
46199;BME280;31928;52.104;10.030;2023-04-15T06:31:46;99744.53;;;12.32;59.04
46199;BME280;31928;52.104;10.030;2023-04-15T06:34:13;99750.31;;;12.52;58.88
46199;BME280;31928;52.104;10.030;2023-04-15T06:36:40;99746.94;;;12.73;57.93
46199;BME280;31928;52.104;10.030;2023-04-15T06:39:06;99739.84;;;12.95;56.96
46199;BME280;31928;52.104;10.030;2023-04-15T06:41:33;99734.81;;;13.15;56.02
46199;BME280;31928;52.104;10.030;2023-04-15T06:44:00;99735.63;;;13.31;55.69
46199;BME280;31928;52.104;10.030;2023-04-15T06:46:27;99730.50;;;13.68;53.87
46199;BME280;31928;52.104;10.030;2023-04-15T06:48:53;99730.06;;;13.54;54.03
46199;BME280;31928;52.104;10.030;2023-04-15T06:51:21;99735.44;;;13.54;54.01
46199;BME280;31928;52.104;10.030;2023-04-15T06:53:48;99733.16;;;13.46;53.68
46199;BME280;31928;52.104;10.030;2023-04-15T06:56:15;99733.31;;;13.40;53.46
46199;BME280;31928;52.104;10.030;2023-04-15T06:58:42;99738.31;;;13.31;53.99
46199;BME280;31928;52.104;10.030;2023-04-15T07:01:08;99741.34;;;13.19;53.92
46199;BME280;31928;52.104;10.030;2023-04-15T07:03:35;99747.38;;;13.42;51.79
46199;BME280;31928;52.104;10.030;2023-04-15T07:06:02;99759.09;;;13.03;54.54
46199;BME280;31928;52.104;10.030;2023-04-15T07:08:32;99776.94;;;12.93;54.99
46199;BME280;31928;52.104;10.030;2023-04-15T07:10:59;99775.94;;;12.82;55.25
46199;BME280;31928;52.104;10.030;2023-04-15T07:13:26;99777.94;;;12.75;55.76
46199;BME280;31928;52.104;10.030;2023-04-15T07:15:53;99785.19;;;13.03;52.83
46199;BME280;31928;52.104;10.030;2023-04-15T07:18:20;99779.22;;;12.73;55.09
46199;BME280;31928;52.104;10.030;2023-04-15T07:20:47;99782.91;;;12.67;55.72
46199;BME280;31928;52.104;10.030;2023-04-15T07:23:13;99772.03;;;12.62;55.88
46199;BME280;31928;52.104;10.030;2023-04-15T07:25:40;99781.66;;;12.58;55.96
46199;BME280;31928;52.104;10.030;2023-04-15T07:28:07;99782.66;;;12.85;52.57
46199;BME280;31928;52.104;10.030;2023-04-15T07:30:33;99780.50;;;12.54;55.44
46199;BME280;31928;52.104;10.030;2023-04-15T07:33:00;99781.44;;;12.48;56.01
46199;BME280;31928;52.104;10.030;2023-04-15T07:35:27;99793.97;;;12.43;56.05
46199;BME280;31928;52.104;10.030;2023-04-15T07:37:54;99788.25;;;12.39;56.41
46199;BME280;31928;52.104;10.030;2023-04-15T07:40:21;99799.47;;;12.36;56.32
46199;BME280;31928;52.104;10.030;2023-04-15T07:42:48;99791.63;;;12.35;57.33
46199;BME280;31928;52.104;10.030;2023-04-15T07:45:15;99793.06;;;12.65;53.92
46199;BME280;31928;52.104;10.030;2023-04-15T07:47:42;99790.69;;;12.41;56.83
46199;BME280;31928;52.104;10.030;2023-04-15T07:50:09;99794.66;;;12.38;56.79
46199;BME280;31928;52.104;10.030;2023-04-15T07:52:40;99794.09;;;12.36;56.74
46199;BME280;31928;52.104;10.030;2023-04-15T07:55:07;99796.44;;;12.33;56.84
46199;BME280;31928;52.104;10.030;2023-04-15T07:57:34;99792.38;;;12.30;57.08
46199;BME280;31928;52.104;10.030;2023-04-15T08:00:02;99797.16;;;12.28;57.13
46199;BME280;31928;52.104;10.030;2023-04-15T08:02:37;99798.78;;;12.29;56.91
46199;BME280;31928;52.104;10.030;2023-04-15T08:05:06;99792.50;;;12.24;57.51
46199;BME280;31928;52.104;10.030;2023-04-15T08:07:33;99798.09;;;12.22;57.61
46199;BME280;31928;52.104;10.030;2023-04-15T08:10:03;99798.56;;;12.19;57.70
46199;BME280;31928;52.104;10.030;2023-04-15T08:12:31;99794.81;;;12.20;57.37
46199;BME280;31928;52.104;10.030;2023-04-15T08:14:59;99797.19;;;12.17;57.91
46199;BME280;31928;52.104;10.030;2023-04-15T08:17:27;99800.09;;;12.15;57.68
46199;BME280;31928;52.104;10.030;2023-04-15T08:19:54;99797.41;;;12.15;57.99
46199;BME280;31928;52.104;10.030;2023-04-15T08:22:20;99802.22;;;12.13;57.88
46199;BME280;31928;52.104;10.030;2023-04-15T08:24:47;99807.84;;;12.12;57.98
46199;BME280;31928;52.104;10.030;2023-04-15T08:27:14;99803.50;;;12.11;58.04
46199;BME280;31928;52.104;10.030;2023-04-15T08:29:41;99815.13;;;12.39;54.42
46199;BME280;31928;52.104;10.030;2023-04-15T08:32:11;99824.75;;;12.12;57.98
46199;BME280;31928;52.104;10.030;2023-04-15T08:34:38;99827.09;;;12.09;58.18
46199;BME280;31928;52.104;10.030;2023-04-15T08:37:06;99820.31;;;12.06;57.94
46199;BME280;31928;52.104;10.030;2023-04-15T08:39:33;99824.09;;;12.05;58.27
46199;BME280;31928;52.104;10.030;2023-04-15T08:42:01;99846.63;;;12.04;58.32
46199;BME280;31928;52.104;10.030;2023-04-15T08:44:31;99849.31;;;12.04;58.50
46199;BME280;31928;52.104;10.030;2023-04-15T08:47:01;99842.41;;;12.08;58.22
46199;BME280;31928;52.104;10.030;2023-04-15T08:49:28;99834.81;;;12.05;58.44
46199;BME280;31928;52.104;10.030;2023-04-15T08:51:58;99827.34;;;12.07;58.66
46199;BME280;31928;52.104;10.030;2023-04-15T08:54:25;99821.59;;;12.04;58.85
46199;BME280;31928;52.104;10.030;2023-04-15T08:56:52;99840.19;;;12.05;58.60
46199;BME280;31928;52.104;10.030;2023-04-15T08:59:20;99846.38;;;12.06;58.77
46199;BME280;31928;52.104;10.030;2023-04-15T09:01:48;99832.69;;;12.07;58.36
46199;BME280;31928;52.104;10.030;2023-04-15T09:04:16;99841.81;;;12.06;58.48
46199;BME280;31928;52.104;10.030;2023-04-15T09:06:43;99847.19;;;12.06;58.81
46199;BME280;31928;52.104;10.030;2023-04-15T09:09:11;99832.78;;;12.35;55.34
46199;BME280;31928;52.104;10.030;2023-04-15T09:11:38;99828.50;;;12.11;58.30
46199;BME280;31928;52.104;10.030;2023-04-15T09:14:05;99829.53;;;12.10;58.44
46199;BME280;31928;52.104;10.030;2023-04-15T09:17:02;99838.19;;;12.24;57.48
46199;BME280;31928;52.104;10.030;2023-04-15T09:19:30;99837.59;;;12.10;58.92
46199;BME280;31928;52.104;10.030;2023-04-15T09:21:57;99841.34;;;12.09;59.39
46199;BME280;31928;52.104;10.030;2023-04-15T09:24:34;99838.31;;;12.17;58.50
46199;BME280;31928;52.104;10.030;2023-04-15T09:27:03;99843.81;;;12.11;59.15
46199;BME280;31928;52.104;10.030;2023-04-15T09:29:29;99845.44;;;12.12;59.06
46199;BME280;31928;52.104;10.030;2023-04-15T09:32:11;99854.53;;;12.22;58.40
46199;BME280;31928;52.104;10.030;2023-04-15T09:34:39;99861.09;;;12.15;59.16
46199;BME280;31928;52.104;10.030;2023-04-15T09:37:05;99865.47;;;12.44;55.78
46199;BME280;31928;52.104;10.030;2023-04-15T09:39:50;99873.56;;;12.32;57.50
46199;BME280;31928;52.104;10.030;2023-04-15T09:42:27;99881.66;;;12.21;59.01
46199;BME280;31928;52.104;10.030;2023-04-15T09:44:54;99875.44;;;12.20;59.36
46199;BME280;31928;52.104;10.030;2023-04-15T09:47:31;99873.47;;;12.27;58.36
46199;BME280;31928;52.104;10.030;2023-04-15T09:49:59;99866.09;;;12.23;58.99
46199;BME280;31928;52.104;10.030;2023-04-15T09:52:26;99867.75;;;12.24;59.00
46199;BME280;31928;52.104;10.030;2023-04-15T09:54:56;99867.25;;;12.27;59.53
46199;BME280;31928;52.104;10.030;2023-04-15T09:57:23;99869.38;;;12.25;59.33
46199;BME280;31928;52.104;10.030;2023-04-15T09:59:51;99860.47;;;12.24;59.63
46199;BME280;31928;52.104;10.030;2023-04-15T10:02:18;99866.47;;;12.26;59.90
46199;BME280;31928;52.104;10.030;2023-04-15T10:04:49;99860.03;;;12.27;59.74
46199;BME280;31928;52.104;10.030;2023-04-15T10:07:16;99867.03;;;12.28;59.85
46199;BME280;31928;52.104;10.030;2023-04-15T10:09:47;99873.00;;;12.30;59.63
46199;BME280;31928;52.104;10.030;2023-04-15T10:12:18;99882.22;;;12.34;59.64
46199;BME280;31928;52.104;10.030;2023-04-15T10:14:52;99872.88;;;12.37;59.03
46199;BME280;31928;52.104;10.030;2023-04-15T10:17:22;99869.81;;;12.33;59.89
46199;BME280;31928;52.104;10.030;2023-04-15T10:19:54;99870.66;;;12.34;59.79
46199;BME280;31928;52.104;10.030;2023-04-15T10:22:22;99867.72;;;12.35;60.23
46199;BME280;31928;52.104;10.030;2023-04-15T10:24:49;99872.28;;;12.35;60.24
46199;BME280;31928;52.104;10.030;2023-04-15T10:27:16;99872.88;;;12.37;60.24
46199;BME280;31928;52.104;10.030;2023-04-15T10:29:43;99874.50;;;12.38;60.15
46199;BME280;31928;52.104;10.030;2023-04-15T10:32:10;99873.25;;;12.68;56.94
46199;BME280;31928;52.104;10.030;2023-04-15T10:34:36;99870.84;;;12.44;59.92
46199;BME280;31928;52.104;10.030;2023-04-15T10:37:03;99863.03;;;12.42;60.31
46199;BME280;31928;52.104;10.030;2023-04-15T10:42:18;99873.06;;;12.58;58.52
46199;BME280;31928;52.104;10.030;2023-04-15T10:44:49;99870.72;;;12.50;59.57
46199;BME280;31928;52.104;10.030;2023-04-15T10:47:20;99873.34;;;12.45;60.17
46199;BME280;31928;52.104;10.030;2023-04-15T10:49:51;99872.50;;;12.45;60.42
46199;BME280;31928;52.104;10.030;2023-04-15T10:52:22;99869.91;;;12.50;60.39
46199;BME280;31928;52.104;10.030;2023-04-15T10:54:49;99870.66;;;12.45;60.65
46199;BME280;31928;52.104;10.030;2023-04-15T10:57:33;99877.28;;;12.54;60.04
46199;BME280;31928;52.104;10.030;2023-04-15T11:05:08;99883.13;;;12.51;60.48
46199;BME280;31928;52.104;10.030;2023-04-15T11:10:03;99887.50;;;12.80;57.70
46199;BME280;31928;52.104;10.030;2023-04-15T11:12:34;99892.81;;;12.63;59.85
46199;BME280;31928;52.104;10.030;2023-04-15T11:17:52;99897.28;;;12.58;60.98
46199;BME280;31928;52.104;10.030;2023-04-15T11:20:19;99901.03;;;12.85;57.13
46199;BME280;31928;52.104;10.030;2023-04-15T11:22:53;99906.38;;;12.68;59.63
46199;BME280;31928;52.104;10.030;2023-04-15T11:25:40;99911.03;;;12.61;60.61
46199;BME280;31928;52.104;10.030;2023-04-15T11:28:07;99907.53;;;12.61;60.83
46199;BME280;31928;52.104;10.030;2023-04-15T11:30:34;99915.69;;;12.89;57.60
46199;BME280;31928;52.104;10.030;2023-04-15T11:33:03;99927.03;;;12.68;60.22
46199;BME280;31928;52.104;10.030;2023-04-15T11:35:31;99914.06;;;12.65;61.21
46199;BME280;31928;52.104;10.030;2023-04-15T11:37:57;99925.88;;;12.64;61.16
46199;BME280;31928;52.104;10.030;2023-04-15T11:40:29;99929.97;;;12.66;61.27
46199;BME280;31928;52.104;10.030;2023-04-15T11:43:20;99927.03;;;12.79;59.78
46199;BME280;31928;52.104;10.030;2023-04-15T11:48:13;99933.09;;;12.98;58.02
46199;BME280;31928;52.104;10.030;2023-04-15T11:50:40;99931.25;;;12.75;61.07
46199;BME280;31928;52.104;10.030;2023-04-15T11:53:10;99936.38;;;12.77;61.14
46199;BME280;31928;52.104;10.030;2023-04-15T11:55:51;99947.84;;;12.84;60.13
46199;BME280;31928;52.104;10.030;2023-04-15T12:00:51;99945.41;;;12.82;60.93
46199;BME280;31928;52.104;10.030;2023-04-15T12:03:22;99957.44;;;12.80;61.62
46199;BME280;31928;52.104;10.030;2023-04-15T12:06:19;99961.44;;;12.89;60.48
46199;BME280;31928;52.104;10.030;2023-04-15T12:09:16;99965.84;;;12.95;60.28
46199;BME280;31928;52.104;10.030;2023-04-15T12:11:48;99957.47;;;12.91;61.01
46199;BME280;31928;52.104;10.030;2023-04-15T12:16:44;99953.94;;;12.91;61.50
46199;BME280;31928;52.104;10.030;2023-04-15T12:19:23;99963.16;;;12.95;61.41
46199;BME280;31928;52.104;10.030;2023-04-15T12:21:52;99960.16;;;12.91;61.88
46199;BME280;31928;52.104;10.030;2023-04-15T12:24:20;99964.22;;;12.94;62.04
46199;BME280;31928;52.104;10.030;2023-04-15T12:26:53;99964.31;;;12.99;61.67
46199;BME280;31928;52.104;10.030;2023-04-15T12:29:24;99968.41;;;13.01;61.79
46199;BME280;31928;52.104;10.030;2023-04-15T12:31:54;99971.09;;;13.01;62.16
46199;BME280;31928;52.104;10.030;2023-04-15T12:34:43;99974.34;;;13.15;60.70
46199;BME280;31928;52.104;10.030;2023-04-15T12:37:11;99968.75;;;13.05;62.24
46199;BME280;31928;52.104;10.030;2023-04-15T12:39:42;99978.47;;;13.06;62.06
46199;BME280;31928;52.104;10.030;2023-04-15T12:42:10;99970.16;;;13.07;61.72
46199;BME280;31928;52.104;10.030;2023-04-15T12:44:37;99985.00;;;13.10;62.07
46199;BME280;31928;52.104;10.030;2023-04-15T12:47:06;99984.75;;;13.11;61.90
46199;BME280;31928;52.104;10.030;2023-04-15T12:49:33;99989.09;;;13.12;62.04
46199;BME280;31928;52.104;10.030;2023-04-15T12:52:01;99994.25;;;13.14;61.72
46199;BME280;31928;52.104;10.030;2023-04-15T12:54:29;99997.50;;;13.16;61.92
46199;BME280;31928;52.104;10.030;2023-04-15T12:56:57;100004.75;;;13.15;61.94
46199;BME280;31928;52.104;10.030;2023-04-15T12:59:24;100002.66;;;13.17;62.09
46199;BME280;31928;52.104;10.030;2023-04-15T13:01:50;100002.44;;;13.46;58.64
46199;BME280;31928;52.104;10.030;2023-04-15T13:04:18;100018.69;;;13.23;61.52
46199;BME280;31928;52.104;10.030;2023-04-15T13:06:46;100016.19;;;13.22;61.96
46199;BME280;31928;52.104;10.030;2023-04-15T13:09:14;100008.13;;;13.22;61.92
46199;BME280;31928;52.104;10.030;2023-04-15T13:11:41;100015.41;;;13.21;62.06
46199;BME280;31928;52.104;10.030;2023-04-15T13:14:08;100015.16;;;13.23;62.07
46199;BME280;31928;52.104;10.030;2023-04-15T13:16:34;100018.69;;;13.23;62.22